sensor_id;sensor_type;location;lat;lon;timestamp;temperature;humidity
44990;DHT22;30723;51.206;3.326;2024-01-15T00:02:09;5.00;99.90
44990;DHT22;30723;51.206;3.326;2024-01-15T00:04:39;4.90;99.90
44990;DHT22;30723;51.206;3.326;2024-01-15T00:07:05;4.70;99.90
44990;DHT22;30723;51.206;3.326;2024-01-15T00:09:31;4.70;99.90
44990;DHT22;30723;51.206;3.326;2024-01-15T00:11:57;4.60;99.90
44990;DHT22;30723;51.206;3.326;2024-01-15T00:14:23;4.60;99.90
44990;DHT22;30723;51.206;3.326;2024-01-15T00:16:48;4.50;99.90
44990;DHT22;30723;51.206;3.326;2024-01-15T00:19:17;4.50;99.90
44990;DHT22;30723;51.206;3.326;2024-01-15T00:21:43;4.50;99.90
44990;DHT22;30723;51.206;3.326;2024-01-15T00:24:09;4.50;99.90
44990;DHT22;30723;51.206;3.326;2024-01-15T00:26:34;4.60;99.90
44990;DHT22;30723;51.206;3.326;2024-01-15T00:29:00;4.70;99.90
44990;DHT22;30723;51.206;3.326;2024-01-15T00:31:26;4.70;99.90
44990;DHT22;30723;51.206;3.326;2024-01-15T00:33:52;4.70;99.90
44990;DHT22;30723;51.206;3.326;2024-01-15T00:36:18;4.70;99.90
44990;DHT22;30723;51.206;3.326;2024-01-15T00:38:47;4.70;99.90
44990;DHT22;30723;51.206;3.326;2024-01-15T00:41:13;4.60;99.90
44990;DHT22;30723;51.206;3.326;2024-01-15T00:43:39;4.60;99.90
44990;DHT22;30723;51.206;3.326;2024-01-15T00:46:05;4.60;99.90
44990;DHT22;30723;51.206;3.326;2024-01-15T00:48:31;4.60;99.90
44990;DHT22;30723;51.206;3.326;2024-01-15T00:50:57;4.70;99.90
44990;DHT22;30723;51.206;3.326;2024-01-15T00:53:23;4.70;99.90
44990;DHT22;30723;51.206;3.326;2024-01-15T00:55:49;4.70;99.90
44990;DHT22;30723;51.206;3.326;2024-01-15T00:58:15;4.80;99.90
44990;DHT22;30723;51.206;3.326;2024-01-15T01:00:41;4.80;99.90
44990;DHT22;30723;51.206;3.326;2024-01-15T01:03:07;4.80;99.90
44990;DHT22;30723;51.206;3.326;2024-01-15T01:05:34;4.80;99.90
44990;DHT22;30723;51.206;3.326;2024-01-15T01:08:00;4.80;99.90
44990;DHT22;30723;51.206;3.326;2024-01-15T01:10:26;4.90;99.90
44990;DHT22;30723;51.206;3.326;2024-01-15T01:12:52;4.90;99.90
44990;DHT22;30723;51.206;3.326;2024-01-15T01:15:17;4.80;99.90
44990;DHT22;30723;51.206;3.326;2024-01-15T01:17:43;4.70;99.90
44990;DHT22;30723;51.206;3.326;2024-01-15T01:20:09;4.80;99.90
44990;DHT22;30723;51.206;3.326;2024-01-15T01:22:36;4.80;99.90
44990;DHT22;30723;51.206;3.326;2024-01-15T01:25:02;4.90;99.90
44990;DHT22;30723;51.206;3.326;2024-01-15T01:27:28;4.90;99.90
44990;DHT22;30723;51.206;3.326;2024-01-15T01:29:54;4.80;99.90
44990;DHT22;30723;51.206;3.326;2024-01-15T01:32:20;4.90;99.90
44990;DHT22;30723;51.206;3.326;2024-01-15T01:34:46;4.80;99.90
44990;DHT22;30723;51.206;3.326;2024-01-15T01:37:12;4.80;99.90
44990;DHT22;30723;51.206;3.326;2024-01-15T01:39:39;4.80;99.90
44990;DHT22;30723;51.206;3.326;2024-01-15T01:42:05;4.80;99.90
44990;DHT22;30723;51.206;3.326;2024-01-15T01:44:31;4.70;99.90
44990;DHT22;30723;51.206;3.326;2024-01-15T01:46:58;4.70;99.90
44990;DHT22;30723;51.206;3.326;2024-01-15T01:49:25;4.80;99.90
44990;DHT22;30723;51.206;3.326;2024-01-15T01:51:52;4.80;99.90
44990;DHT22;30723;51.206;3.326;2024-01-15T01:54:19;4.80;99.90
44990;DHT22;30723;51.206;3.326;2024-01-15T01:56:47;4.80;99.90
44990;DHT22;30723;51.206;3.326;2024-01-15T01:59:14;4.70;99.90
44990;DHT22;30723;51.206;3.326;2024-01-15T02:01:40;4.70;99.90
44990;DHT22;30723;51.206;3.326;2024-01-15T02:04:08;4.80;99.90
44990;DHT22;30723;51.206;3.326;2024-01-15T02:06:34;4.70;99.90
44990;DHT22;30723;51.206;3.326;2024-01-15T02:09:00;4.70;99.90
44990;DHT22;30723;51.206;3.326;2024-01-15T02:11:26;4.70;99.90
44990;DHT22;30723;51.206;3.326;2024-01-15T02:13:52;4.70;99.90
44990;DHT22;30723;51.206;3.326;2024-01-15T02:16:18;4.70;99.90
44990;DHT22;30723;51.206;3.326;2024-01-15T02:18:45;4.70;99.90
44990;DHT22;30723;51.206;3.326;2024-01-15T02:21:11;4.70;99.90
44990;DHT22;30723;51.206;3.326;2024-01-15T02:23:37;4.80;99.90
44990;DHT22;30723;51.206;3.326;2024-01-15T02:26:04;4.70;99.90
44990;DHT22;30723;51.206;3.326;2024-01-15T02:28:30;4.70;99.90
44990;DHT22;30723;51.206;3.326;2024-01-15T02:30:58;4.80;99.90
44990;DHT22;30723;51.206;3.326;2024-01-15T02:33:24;4.80;99.90
44990;DHT22;30723;51.206;3.326;2024-01-15T02:35:49;4.80;99.90
44990;DHT22;30723;51.206;3.326;2024-01-15T02:38:15;4.70;99.90
44990;DHT22;30723;51.206;3.326;2024-01-15T02:40:42;4.70;99.90
44990;DHT22;30723;51.206;3.326;2024-01-15T02:43:08;4.80;99.90
44990;DHT22;30723;51.206;3.326;2024-01-15T02:45:34;4.80;99.90
44990;DHT22;30723;51.206;3.326;2024-01-15T02:48:00;4.80;99.90
44990;DHT22;30723;51.206;3.326;2024-01-15T02:50:26;4.80;99.90
44990;DHT22;30723;51.206;3.326;2024-01-15T02:52:52;4.60;99.90
44990;DHT22;30723;51.206;3.326;2024-01-15T02:55:18;4.50;99.90
44990;DHT22;30723;51.206;3.326;2024-01-15T02:57:44;4.60;99.90
44990;DHT22;30723;51.206;3.326;2024-01-15T03:00:10;4.70;99.90
44990;DHT22;30723;51.206;3.326;2024-01-15T03:02:37;4.80;99.90
44990;DHT22;30723;51.206;3.326;2024-01-15T03:05:09;4.80;99.90
44990;DHT22;30723;51.206;3.326;2024-01-15T03:07:35;4.70;99.90
44990;DHT22;30723;51.206;3.326;2024-01-15T03:10:02;4.70;99.90
44990;DHT22;30723;51.206;3.326;2024-01-15T03:12:27;4.60;99.90
44990;DHT22;30723;51.206;3.326;2024-01-15T03:14:53;4.60;99.90
44990;DHT22;30723;51.206;3.326;2024-01-15T03:17:19;4.60;99.90
44990;DHT22;30723;51.206;3.326;2024-01-15T03:19:45;4.70;99.90
44990;DHT22;30723;51.206;3.326;2024-01-15T03:22:11;4.70;99.90
44990;DHT22;30723;51.206;3.326;2024-01-15T03:24:36;4.70;99.90
44990;DHT22;30723;51.206;3.326;2024-01-15T03:27:02;4.70;99.90
44990;DHT22;30723;51.206;3.326;2024-01-15T03:29:28;4.70;99.90
44990;DHT22;30723;51.206;3.326;2024-01-15T03:31:54;4.70;99.90
44990;DHT22;30723;51.206;3.326;2024-01-15T03:34:20;4.60;99.90
44990;DHT22;30723;51.206;3.326;2024-01-15T03:36:45;4.60;99.90
44990;DHT22;30723;51.206;3.326;2024-01-15T03:39:11;4.60;99.90
44990;DHT22;30723;51.206;3.326;2024-01-15T03:41:37;4.60;99.90
44990;DHT22;30723;51.206;3.326;2024-01-15T03:44:03;4.70;99.90
44990;DHT22;30723;51.206;3.326;2024-01-15T03:46:29;4.70;99.90
44990;DHT22;30723;51.206;3.326;2024-01-15T03:48:55;4.60;99.90
44990;DHT22;30723;51.206;3.326;2024-01-15T03:51:21;4.70;99.90
44990;DHT22;30723;51.206;3.326;2024-01-15T03:53:46;4.60;99.90
44990;DHT22;30723;51.206;3.326;2024-01-15T03:56:13;4.50;99.90
44990;DHT22;30723;51.206;3.326;2024-01-15T03:58:39;4.40;99.90
44990;DHT22;30723;51.206;3.326;2024-01-15T04:01:11;4.50;99.90
44990;DHT22;30723;51.206;3.326;2024-01-15T04:03:36;4.50;99.90
44990;DHT22;30723;51.206;3.326;2024-01-15T04:06:03;4.40;99.90
44990;DHT22;30723;51.206;3.326;2024-01-15T04:08:29;4.50;99.90
44990;DHT22;30723;51.206;3.326;2024-01-15T04:10:55;4.40;99.90
44990;DHT22;30723;51.206;3.326;2024-01-15T04:13:21;4.40;99.90
44990;DHT22;30723;51.206;3.326;2024-01-15T04:15:47;4.30;99.90
44990;DHT22;30723;51.206;3.326;2024-01-15T04:18:16;4.30;99.90
44990;DHT22;30723;51.206;3.326;2024-01-15T04:20:42;4.10;99.90
44990;DHT22;30723;51.206;3.326;2024-01-15T04:23:07;4.20;99.90
44990;DHT22;30723;51.206;3.326;2024-01-15T04:25:33;4.10;99.90
44990;DHT22;30723;51.206;3.326;2024-01-15T04:27:59;4.00;99.90
44990;DHT22;30723;51.206;3.326;2024-01-15T04:30:25;4.00;99.90
44990;DHT22;30723;51.206;3.326;2024-01-15T04:32:50;4.00;99.90
44990;DHT22;30723;51.206;3.326;2024-01-15T04:35:16;3.90;99.90
44990;DHT22;30723;51.206;3.326;2024-01-15T04:37:42;3.80;99.90
44990;DHT22;30723;51.206;3.326;2024-01-15T04:40:09;3.80;99.90
44990;DHT22;30723;51.206;3.326;2024-01-15T04:42:35;3.60;99.90
44990;DHT22;30723;51.206;3.326;2024-01-15T04:45:00;3.70;99.90
44990;DHT22;30723;51.206;3.326;2024-01-15T04:47:26;3.70;99.90
44990;DHT22;30723;51.206;3.326;2024-01-15T04:49:52;3.70;99.90
44990;DHT22;30723;51.206;3.326;2024-01-15T04:52:18;3.70;99.90
44990;DHT22;30723;51.206;3.326;2024-01-15T04:54:43;3.70;99.90
44990;DHT22;30723;51.206;3.326;2024-01-15T04:57:09;3.60;99.90
44990;DHT22;30723;51.206;3.326;2024-01-15T04:59:35;3.60;99.90
44990;DHT22;30723;51.206;3.326;2024-01-15T05:02:02;3.60;99.90
44990;DHT22;30723;51.206;3.326;2024-01-15T05:04:27;3.50;99.90
44990;DHT22;30723;51.206;3.326;2024-01-15T05:06:54;3.40;99.90
44990;DHT22;30723;51.206;3.326;2024-01-15T05:09:20;3.40;99.90
44990;DHT22;30723;51.206;3.326;2024-01-15T05:11:46;3.50;99.90
44990;DHT22;30723;51.206;3.326;2024-01-15T05:14:12;3.50;99.90
44990;DHT22;30723;51.206;3.326;2024-01-15T05:16:39;3.50;99.90
44990;DHT22;30723;51.206;3.326;2024-01-15T05:19:06;3.50;99.90
44990;DHT22;30723;51.206;3.326;2024-01-15T05:21:32;3.50;99.90
44990;DHT22;30723;51.206;3.326;2024-01-15T05:23:58;3.50;99.90
44990;DHT22;30723;51.206;3.326;2024-01-15T05:26:23;3.50;99.90
44990;DHT22;30723;51.206;3.326;2024-01-15T05:28:49;3.50;99.90
44990;DHT22;30723;51.206;3.326;2024-01-15T05:31:15;3.50;99.90
44990;DHT22;30723;51.206;3.326;2024-01-15T05:33:40;3.60;99.90
44990;DHT22;30723;51.206;3.326;2024-01-15T05:36:06;3.60;99.90
44990;DHT22;30723;51.206;3.326;2024-01-15T05:38:32;3.70;99.90
44990;DHT22;30723;51.206;3.326;2024-01-15T05:40:58;3.70;99.90
44990;DHT22;30723;51.206;3.326;2024-01-15T05:43:24;3.70;99.90
44990;DHT22;30723;51.206;3.326;2024-01-15T05:45:49;3.70;99.90
44990;DHT22;30723;51.206;3.326;2024-01-15T05:48:15;3.70;99.90
44990;DHT22;30723;51.206;3.326;2024-01-15T05:50:41;3.80;99.90
44990;DHT22;30723;51.206;3.326;2024-01-15T05:53:07;3.80;99.90
44990;DHT22;30723;51.206;3.326;2024-01-15T05:55:34;3.70;99.90
44990;DHT22;30723;51.206;3.326;2024-01-15T05:58:00;3.80;99.90
44990;DHT22;30723;51.206;3.326;2024-01-15T06:00:26;3.70;99.90
44990;DHT22;30723;51.206;3.326;2024-01-15T06:02:52;3.70;99.90
44990;DHT22;30723;51.206;3.326;2024-01-15T06:05:18;3.70;99.90
44990;DHT22;30723;51.206;3.326;2024-01-15T06:07:44;3.60;99.90
44990;DHT22;30723;51.206;3.326;2024-01-15T06:10:09;3.50;99.90
44990;DHT22;30723;51.206;3.326;2024-01-15T06:12:35;3.40;99.90
44990;DHT22;30723;51.206;3.326;2024-01-15T06:15:01;3.40;99.90
44990;DHT22;30723;51.206;3.326;2024-01-15T06:17:27;3.40;99.90
44990;DHT22;30723;51.206;3.326;2024-01-15T06:19:53;3.30;99.90
44990;DHT22;30723;51.206;3.326;2024-01-15T06:22:19;3.30;99.90
44990;DHT22;30723;51.206;3.326;2024-01-15T06:24:45;3.30;99.90
44990;DHT22;30723;51.206;3.326;2024-01-15T06:27:10;3.30;99.90
44990;DHT22;30723;51.206;3.326;2024-01-15T06:29:38;3.30;99.90
44990;DHT22;30723;51.206;3.326;2024-01-15T06:32:04;3.30;99.90
44990;DHT22;30723;51.206;3.326;2024-01-15T06:34:30;3.20;99.90
44990;DHT22;30723;51.206;3.326;2024-01-15T06:36:56;3.30;99.90
44990;DHT22;30723;51.206;3.326;2024-01-15T06:39:22;3.20;99.90
44990;DHT22;30723;51.206;3.326;2024-01-15T06:41:47;3.20;99.90
44990;DHT22;30723;51.206;3.326;2024-01-15T06:44:13;3.30;99.90
44990;DHT22;30723;51.206;3.326;2024-01-15T06:46:43;3.20;99.90
44990;DHT22;30723;51.206;3.326;2024-01-15T06:49:09;3.20;99.90
44990;DHT22;30723;51.206;3.326;2024-01-15T06:51:35;3.10;99.90
44990;DHT22;30723;51.206;3.326;2024-01-15T06:54:01;3.20;99.90
44990;DHT22;30723;51.206;3.326;2024-01-15T06:56:27;3.20;99.90
44990;DHT22;30723;51.206;3.326;2024-01-15T06:58:55;3.20;99.90
44990;DHT22;30723;51.206;3.326;2024-01-15T07:01:21;3.20;99.90
44990;DHT22;30723;51.206;3.326;2024-01-15T07:03:47;3.20;99.90
44990;DHT22;30723;51.206;3.326;2024-01-15T07:06:13;3.10;99.90
44990;DHT22;30723;51.206;3.326;2024-01-15T07:08:39;3.20;99.90
44990;DHT22;30723;51.206;3.326;2024-01-15T07:11:07;3.20;99.90
44990;DHT22;30723;51.206;3.326;2024-01-15T07:13:32;3.20;99.90
44990;DHT22;30723;51.206;3.326;2024-01-15T07:15:58;3.20;99.90
44990;DHT22;30723;51.206;3.326;2024-01-15T07:18:24;3.20;99.90
44990;DHT22;30723;51.206;3.326;2024-01-15T07:20:50;3.20;99.90
44990;DHT22;30723;51.206;3.326;2024-01-15T07:23:16;3.20;99.90
44990;DHT22;30723;51.206;3.326;2024-01-15T07:25:43;3.20;99.90
44990;DHT22;30723;51.206;3.326;2024-01-15T07:28:09;3.20;99.90
44990;DHT22;30723;51.206;3.326;2024-01-15T07:30:35;3.20;99.90
44990;DHT22;30723;51.206;3.326;2024-01-15T07:33:00;3.20;99.90
44990;DHT22;30723;51.206;3.326;2024-01-15T07:35:26;3.10;99.90
44990;DHT22;30723;51.206;3.326;2024-01-15T07:37:52;3.20;99.90
44990;DHT22;30723;51.206;3.326;2024-01-15T07:40:18;3.20;99.90
44990;DHT22;30723;51.206;3.326;2024-01-15T07:42:44;3.20;99.90
44990;DHT22;30723;51.206;3.326;2024-01-15T07:45:10;3.20;99.90
44990;DHT22;30723;51.206;3.326;2024-01-15T07:47:36;3.20;99.90
44990;DHT22;30723;51.206;3.326;2024-01-15T07:50:03;3.20;99.90
44990;DHT22;30723;51.206;3.326;2024-01-15T07:52:30;3.30;99.90
44990;DHT22;30723;51.206;3.326;2024-01-15T07:54:56;3.20;99.90
44990;DHT22;30723;51.206;3.326;2024-01-15T07:57:22;3.30;99.90
44990;DHT22;30723;51.206;3.326;2024-01-15T07:59:48;3.20;99.90
44990;DHT22;30723;51.206;3.326;2024-01-15T08:02:14;3.20;99.90
44990;DHT22;30723;51.206;3.326;2024-01-15T08:04:41;3.20;99.90
44990;DHT22;30723;51.206;3.326;2024-01-15T08:07:08;3.20;99.90
44990;DHT22;30723;51.206;3.326;2024-01-15T08:09:34;3.20;99.90
44990;DHT22;30723;51.206;3.326;2024-01-15T08:12:00;3.20;99.90
44990;DHT22;30723;51.206;3.326;2024-01-15T08:14:26;3.30;99.90
44990;DHT22;30723;51.206;3.326;2024-01-15T08:16:52;3.30;99.90
44990;DHT22;30723;51.206;3.326;2024-01-15T08:19:17;3.30;99.90
44990;DHT22;30723;51.206;3.326;2024-01-15T08:21:45;3.40;99.90
44990;DHT22;30723;51.206;3.326;2024-01-15T08:24:11;3.40;99.90
44990;DHT22;30723;51.206;3.326;2024-01-15T08:26:37;3.40;99.90
44990;DHT22;30723;51.206;3.326;2024-01-15T08:29:03;3.40;99.90
44990;DHT22;30723;51.206;3.326;2024-01-15T08:31:29;3.40;99.90
44990;DHT22;30723;51.206;3.326;2024-01-15T08:33:54;3.40;99.90
44990;DHT22;30723;51.206;3.326;2024-01-15T08:36:21;3.40;99.90
44990;DHT22;30723;51.206;3.326;2024-01-15T08:38:47;3.40;99.90
44990;DHT22;30723;51.206;3.326;2024-01-15T08:41:13;3.50;99.90
44990;DHT22;30723;51.206;3.326;2024-01-15T08:43:39;3.50;99.90
44990;DHT22;30723;51.206;3.326;2024-01-15T08:46:05;3.50;99.90
44990;DHT22;30723;51.206;3.326;2024-01-15T08:48:31;3.50;99.90
44990;DHT22;30723;51.206;3.326;2024-01-15T08:50:57;3.40;99.90
44990;DHT22;30723;51.206;3.326;2024-01-15T08:53:23;3.40;99.90
44990;DHT22;30723;51.206;3.326;2024-01-15T08:55:49;3.40;99.90
44990;DHT22;30723;51.206;3.326;2024-01-15T08:58:15;3.30;99.90
44990;DHT22;30723;51.206;3.326;2024-01-15T09:00:41;3.40;99.90
44990;DHT22;30723;51.206;3.326;2024-01-15T09:03:07;3.60;99.90
44990;DHT22;30723;51.206;3.326;2024-01-15T09:05:34;3.70;99.90
44990;DHT22;30723;51.206;3.326;2024-01-15T09:08:00;3.60;99.90
44990;DHT22;30723;51.206;3.326;2024-01-15T09:10:25;3.60;99.90
44990;DHT22;30723;51.206;3.326;2024-01-15T09:12:51;3.50;99.90
44990;DHT22;30723;51.206;3.326;2024-01-15T09:15:17;3.50;99.90
44990;DHT22;30723;51.206;3.326;2024-01-15T09:17:43;3.40;99.90
44990;DHT22;30723;51.206;3.326;2024-01-15T09:20:10;3.40;99.90
44990;DHT22;30723;51.206;3.326;2024-01-15T09:22:38;3.40;99.90
44990;DHT22;30723;51.206;3.326;2024-01-15T09:25:06;3.40;99.90
44990;DHT22;30723;51.206;3.326;2024-01-15T09:27:32;3.40;99.90
44990;DHT22;30723;51.206;3.326;2024-01-15T09:29:58;3.40;99.90
44990;DHT22;30723;51.206;3.326;2024-01-15T09:32:24;3.40;99.90
44990;DHT22;30723;51.206;3.326;2024-01-15T09:34:49;3.50;99.90
44990;DHT22;30723;51.206;3.326;2024-01-15T09:37:16;3.50;99.90
44990;DHT22;30723;51.206;3.326;2024-01-15T09:39:41;3.50;99.90
44990;DHT22;30723;51.206;3.326;2024-01-15T09:42:08;3.50;99.90
44990;DHT22;30723;51.206;3.326;2024-01-15T09:44:34;3.60;99.90
44990;DHT22;30723;51.206;3.326;2024-01-15T09:47:01;3.60;99.90
44990;DHT22;30723;51.206;3.326;2024-01-15T09:49:27;3.60;99.90
44990;DHT22;30723;51.206;3.326;2024-01-15T09:51:54;3.70;99.90
44990;DHT22;30723;51.206;3.326;2024-01-15T09:54:20;3.80;99.90
44990;DHT22;30723;51.206;3.326;2024-01-15T09:56:47;3.70;99.90
44990;DHT22;30723;51.206;3.326;2024-01-15T09:59:19;3.70;99.90
44990;DHT22;30723;51.206;3.326;2024-01-15T10:01:45;3.70;99.90
44990;DHT22;30723;51.206;3.326;2024-01-15T10:04:13;3.80;99.90
44990;DHT22;30723;51.206;3.326;2024-01-15T10:06:43;3.80;99.90
44990;DHT22;30723;51.206;3.326;2024-01-15T10:09:12;3.80;99.90
44990;DHT22;30723;51.206;3.326;2024-01-15T10:11:42;4.00;99.90
44990;DHT22;30723;51.206;3.326;2024-01-15T10:14:12;4.10;99.90
44990;DHT22;30723;51.206;3.326;2024-01-15T10:16:42;4.10;99.90
44990;DHT22;30723;51.206;3.326;2024-01-15T10:19:08;4.10;99.90
44990;DHT22;30723;51.206;3.326;2024-01-15T10:21:35;4.10;99.90
44990;DHT22;30723;51.206;3.326;2024-01-15T10:24:01;4.30;99.90
44990;DHT22;30723;51.206;3.326;2024-01-15T10:26:28;4.20;99.90
44990;DHT22;30723;51.206;3.326;2024-01-15T10:28:54;4.30;99.90
44990;DHT22;30723;51.206;3.326;2024-01-15T10:31:20;4.50;99.90
44990;DHT22;30723;51.206;3.326;2024-01-15T10:33:49;4.40;99.90
44990;DHT22;30723;51.206;3.326;2024-01-15T10:36:16;4.80;99.90
44990;DHT22;30723;51.206;3.326;2024-01-15T10:38:46;5.50;99.90
44990;DHT22;30723;51.206;3.326;2024-01-15T10:41:12;6.30;99.90
44990;DHT22;30723;51.206;3.326;2024-01-15T10:43:38;6.70;99.90
44990;DHT22;30723;51.206;3.326;2024-01-15T10:46:07;6.40;99.90
44990;DHT22;30723;51.206;3.326;2024-01-15T10:48:33;6.00;99.90
44990;DHT22;30723;51.206;3.326;2024-01-15T10:51:01;5.70;99.90
44990;DHT22;30723;51.206;3.326;2024-01-15T10:53:38;5.40;99.90
44990;DHT22;30723;51.206;3.326;2024-01-15T10:56:05;5.20;99.90
44990;DHT22;30723;51.206;3.326;2024-01-15T10:58:31;5.60;99.90
44990;DHT22;30723;51.206;3.326;2024-01-15T11:00:59;6.60;99.90
44990;DHT22;30723;51.206;3.326;2024-01-15T11:03:25;6.50;99.90
44990;DHT22;30723;51.206;3.326;2024-01-15T11:05:53;6.10;99.90
44990;DHT22;30723;51.206;3.326;2024-01-15T11:08:19;6.40;99.90
44990;DHT22;30723;51.206;3.326;2024-01-15T11:10:52;6.60;99.90
44990;DHT22;30723;51.206;3.326;2024-01-15T11:13:21;6.60;99.90
44990;DHT22;30723;51.206;3.326;2024-01-15T11:18:34;7.20;99.90
44990;DHT22;30723;51.206;3.326;2024-01-15T11:29:10;5.80;99.90
44990;DHT22;30723;51.206;3.326;2024-01-15T11:31:57;5.40;99.90
44990;DHT22;30723;51.206;3.326;2024-01-15T11:34:49;5.10;99.90
44990;DHT22;30723;51.206;3.326;2024-01-15T11:37:15;5.00;99.90
44990;DHT22;30723;51.206;3.326;2024-01-15T11:39:42;4.80;99.90
44990;DHT22;30723;51.206;3.326;2024-01-15T11:42:10;4.60;99.90
44990;DHT22;30723;51.206;3.326;2024-01-15T11:44:37;4.50;99.90
44990;DHT22;30723;51.206;3.326;2024-01-15T11:47:07;4.50;99.90
44990;DHT22;30723;51.206;3.326;2024-01-15T11:50:01;4.40;99.90
44990;DHT22;30723;51.206;3.326;2024-01-15T11:52:34;4.40;99.90
44990;DHT22;30723;51.206;3.326;2024-01-15T12:00:10;4.50;99.90
44990;DHT22;30723;51.206;3.326;2024-01-15T12:02:37;4.60;99.90
44990;DHT22;30723;51.206;3.326;2024-01-15T12:05:04;4.60;99.90
44990;DHT22;30723;51.206;3.326;2024-01-15T12:07:29;4.70;99.90
44990;DHT22;30723;51.206;3.326;2024-01-15T12:09:55;4.60;99.90
44990;DHT22;30723;51.206;3.326;2024-01-15T12:15:11;4.90;99.90
44990;DHT22;30723;51.206;3.326;2024-01-15T12:17:38;4.80;99.90
44990;DHT22;30723;51.206;3.326;2024-01-15T12:20:04;4.70;99.90
44990;DHT22;30723;51.206;3.326;2024-01-15T12:22:30;5.00;99.90
44990;DHT22;30723;51.206;3.326;2024-01-15T12:24:56;6.30;99.90
44990;DHT22;30723;51.206;3.326;2024-01-15T12:27:24;7.40;99.90
44990;DHT22;30723;51.206;3.326;2024-01-15T12:29:50;7.60;99.90
44990;DHT22;30723;51.206;3.326;2024-01-15T12:32:16;7.30;99.90
44990;DHT22;30723;51.206;3.326;2024-01-15T12:34:43;6.90;99.90
44990;DHT22;30723;51.206;3.326;2024-01-15T12:37:09;6.30;99.90
44990;DHT22;30723;51.206;3.326;2024-01-15T12:39:34;5.70;99.90
44990;DHT22;30723;51.206;3.326;2024-01-15T12:42:02;5.50;99.90
44990;DHT22;30723;51.206;3.326;2024-01-15T12:44:29;6.20;99.90
44990;DHT22;30723;51.206;3.326;2024-01-15T12:46:55;6.50;99.90
44990;DHT22;30723;51.206;3.326;2024-01-15T12:49:23;5.90;99.90
44990;DHT22;30723;51.206;3.326;2024-01-15T12:51:59;5.40;99.90
44990;DHT22;30723;51.206;3.326;2024-01-15T12:54:26;5.10;99.90
44990;DHT22;30723;51.206;3.326;2024-01-15T12:56:52;5.10;99.90
44990;DHT22;30723;51.206;3.326;2024-01-15T12:59:18;5.10;99.90
44990;DHT22;30723;51.206;3.326;2024-01-15T13:01:45;4.90;99.90
44990;DHT22;30723;51.206;3.326;2024-01-15T13:04:12;4.90;99.90
44990;DHT22;30723;51.206;3.326;2024-01-15T13:06:46;4.90;99.90
44990;DHT22;30723;51.206;3.326;2024-01-15T13:09:11;4.80;99.90
44990;DHT22;30723;51.206;3.326;2024-01-15T13:11:37;4.70;99.90
44990;DHT22;30723;51.206;3.326;2024-01-15T13:14:03;4.70;99.90
44990;DHT22;30723;51.206;3.326;2024-01-15T13:16:29;4.60;99.90
44990;DHT22;30723;51.206;3.326;2024-01-15T13:18:55;4.50;99.90
44990;DHT22;30723;51.206;3.326;2024-01-15T13:21:22;4.50;99.90
44990;DHT22;30723;51.206;3.326;2024-01-15T13:23:48;4.50;99.90
44990;DHT22;30723;51.206;3.326;2024-01-15T13:26:14;4.40;99.90
44990;DHT22;30723;51.206;3.326;2024-01-15T13:28:40;4.40;99.90
44990;DHT22;30723;51.206;3.326;2024-01-15T13:31:05;4.40;99.90
44990;DHT22;30723;51.206;3.326;2024-01-15T13:33:31;4.40;99.90
44990;DHT22;30723;51.206;3.326;2024-01-15T13:35:57;4.40;99.90
44990;DHT22;30723;51.206;3.326;2024-01-15T13:38:23;4.30;99.90
44990;DHT22;30723;51.206;3.326;2024-01-15T13:40:49;4.30;99.90
44990;DHT22;30723;51.206;3.326;2024-01-15T13:43:15;4.40;99.90
44990;DHT22;30723;51.206;3.326;2024-01-15T13:45:41;4.50;99.90
44990;DHT22;30723;51.206;3.326;2024-01-15T13:48:07;4.50;99.90
44990;DHT22;30723;51.206;3.326;2024-01-15T13:50:36;4.50;99.90
44990;DHT22;30723;51.206;3.326;2024-01-15T13:53:03;4.50;99.90
44990;DHT22;30723;51.206;3.326;2024-01-15T13:55:31;4.60;99.90
44990;DHT22;30723;51.206;3.326;2024-01-15T13:57:57;4.60;99.90
44990;DHT22;30723;51.206;3.326;2024-01-15T14:00:23;4.60;99.90
44990;DHT22;30723;51.206;3.326;2024-01-15T14:02:49;4.50;99.90
44990;DHT22;30723;51.206;3.326;2024-01-15T14:05:15;4.50;99.90
44990;DHT22;30723;51.206;3.326;2024-01-15T14:07:42;4.40;99.90
44990;DHT22;30723;51.206;3.326;2024-01-15T14:10:09;4.40;99.90
44990;DHT22;30723;51.206;3.326;2024-01-15T14:12:35;4.30;99.90
44990;DHT22;30723;51.206;3.326;2024-01-15T14:15:05;4.40;99.90
44990;DHT22;30723;51.206;3.326;2024-01-15T14:17:32;4.40;99.90
44990;DHT22;30723;51.206;3.326;2024-01-15T14:19:57;4.30;99.90
44990;DHT22;30723;51.206;3.326;2024-01-15T14:22:23;4.30;99.90
44990;DHT22;30723;51.206;3.326;2024-01-15T14:24:49;4.40;99.90
44990;DHT22;30723;51.206;3.326;2024-01-15T14:27:16;4.50;99.90
44990;DHT22;30723;51.206;3.326;2024-01-15T14:29:42;4.60;99.90
44990;DHT22;30723;51.206;3.326;2024-01-15T14:32:08;4.60;99.90
44990;DHT22;30723;51.206;3.326;2024-01-15T14:34:33;4.50;99.90
44990;DHT22;30723;51.206;3.326;2024-01-15T14:37:01;4.50;99.90
44990;DHT22;30723;51.206;3.326;2024-01-15T14:39:27;4.50;99.90
44990;DHT22;30723;51.206;3.326;2024-01-15T14:41:53;4.50;99.90
44990;DHT22;30723;51.206;3.326;2024-01-15T14:44:19;4.50;99.90
44990;DHT22;30723;51.206;3.326;2024-01-15T14:46:45;4.60;99.90
44990;DHT22;30723;51.206;3.326;2024-01-15T14:49:11;4.70;99.90
44990;DHT22;30723;51.206;3.326;2024-01-15T14:51:37;4.60;99.90
44990;DHT22;30723;51.206;3.326;2024-01-15T14:54:03;4.50;99.90
44990;DHT22;30723;51.206;3.326;2024-01-15T14:56:29;4.50;99.90
44990;DHT22;30723;51.206;3.326;2024-01-15T14:58:54;4.40;99.90
44990;DHT22;30723;51.206;3.326;2024-01-15T15:01:20;4.40;99.90
44990;DHT22;30723;51.206;3.326;2024-01-15T15:03:48;4.40;99.90
44990;DHT22;30723;51.206;3.326;2024-01-15T15:06:14;4.40;99.90
44990;DHT22;30723;51.206;3.326;2024-01-15T15:08:39;4.40;99.90
44990;DHT22;30723;51.206;3.326;2024-01-15T15:11:06;4.40;99.90
44990;DHT22;30723;51.206;3.326;2024-01-15T15:13:32;4.30;99.90
44990;DHT22;30723;51.206;3.326;2024-01-15T15:15:58;4.30;99.90
44990;DHT22;30723;51.206;3.326;2024-01-15T15:18:24;4.20;99.90
44990;DHT22;30723;51.206;3.326;2024-01-15T15:20:50;4.10;99.90
44990;DHT22;30723;51.206;3.326;2024-01-15T15:23:17;4.00;99.90
44990;DHT22;30723;51.206;3.326;2024-01-15T15:25:43;4.10;99.90
44990;DHT22;30723;51.206;3.326;2024-01-15T15:28:09;4.10;99.90
44990;DHT22;30723;51.206;3.326;2024-01-15T15:30:38;4.10;99.90
44990;DHT22;30723;51.206;3.326;2024-01-15T15:33:04;4.10;99.90
44990;DHT22;30723;51.206;3.326;2024-01-15T15:35:30;4.00;99.90
44990;DHT22;30723;51.206;3.326;2024-01-15T15:37:56;4.10;99.90
44990;DHT22;30723;51.206;3.326;2024-01-15T15:40:22;4.00;99.90
44990;DHT22;30723;51.206;3.326;2024-01-15T15:42:50;3.90;99.90
44990;DHT22;30723;51.206;3.326;2024-01-15T15:45:15;3.90;99.90
44990;DHT22;30723;51.206;3.326;2024-01-15T15:47:41;3.80;99.90
44990;DHT22;30723;51.206;3.326;2024-01-15T15:50:07;3.80;99.90
44990;DHT22;30723;51.206;3.326;2024-01-15T15:52:33;3.70;99.90
44990;DHT22;30723;51.206;3.326;2024-01-15T15:55:00;3.70;99.90
44990;DHT22;30723;51.206;3.326;2024-01-15T15:57:26;3.70;99.90
44990;DHT22;30723;51.206;3.326;2024-01-15T15:59:53;3.70;99.90